Time;durP1;ratioP1;P1;durP2;ratioP2;P2;SDS_P1;SDS_P2;PMS_P1;PMS_P2;Temp;Humidity;BMP_temperature;BMP_pressure;BME280_temperature;BME280_humidity;BME280_pressure;Samples;Min_cycle;Max_cycle;Signal;HPM_P1;HPM_P2
2022/05/30 00:00:38;;;;;;;11.75;5.68;;;;;;;13.72;100.00;94280.75;5017353;28;20480;-67
2022/05/30 00:03:06;;;;;;;14.50;5.82;;;;;;;13.73;100.00;94277.09;5019041;28;20052;-67
2022/05/30 00:05:34;;;;;;;10.45;5.35;;;;;;;13.74;100.00;94286.53;5013479;28;20544;-67
2022/05/30 00:08:01;;;;;;;13.15;5.75;;;;;;;13.68;100.00;94295.41;5013405;28;20038;-67
2022/05/30 00:10:29;;;;;;;8.57;5.13;;;;;;;13.62;100.00;94286.00;5016681;28;20160;-67
2022/05/30 00:12:56;;;;;;;11.93;5.25;;;;;;;13.56;100.00;94288.63;5002468;28;20037;-66
2022/05/30 00:15:25;;;;;;;10.90;6.13;;;;;;;13.56;100.00;94288.63;5017573;28;20049;-67
2022/05/30 00:18:03;;;;;;;8.15;4.95;;;;;;;13.48;100.00;94296.19;5017758;28;20037;-68
2022/05/30 00:20:30;;;;;;;8.02;4.47;;;;;;;13.40;100.00;94294.91;5016534;28;20049;-69
2022/05/30 00:22:57;;;;;;;11.55;4.40;;;;;;;13.35;100.00;94302.75;5018307;28;20038;-68
2022/05/30 00:25:23;;;;;;;13.07;4.80;;;;;;;13.23;100.00;94283.88;5015866;28;20045;-67
2022/05/30 00:27:50;;;;;;;18.50;4.55;;;;;;;13.23;100.00;94294.31;5017827;28;20049;-68
2022/05/30 00:30:17;;;;;;;11.57;4.82;;;;;;;13.13;100.00;94285.44;5002150;28;20507;-67
2022/05/30 00:32:45;;;;;;;12.00;4.82;;;;;;;13.16;100.00;94300.59;5012542;28;20057;-67
2022/05/30 00:35:13;;;;;;;13.38;5.22;;;;;;;13.22;100.00;94308.44;4986141;28;20049;-67
2022/05/30 00:37:40;;;;;;;10.95;5.80;;;;;;;13.15;100.00;94299.03;5012184;28;20069;-67
2022/05/30 00:40:08;;;;;;;31.38;7.50;;;;;;;13.30;100.00;94305.31;5001290;28;20120;-66
2022/05/30 00:42:35;;;;;;;14.75;7.72;;;;;;;13.36;100.00;94304.28;5011816;28;20038;-69
2022/05/30 00:45:02;;;;;;;13.77;6.55;;;;;;;13.41;100.00;94306.13;4995242;28;20494;-67
2022/05/30 00:47:28;;;;;;;18.48;8.25;;;;;;;13.45;100.00;94307.97;5011374;28;20041;-67
2022/05/30 00:49:56;;;;;;;17.73;5.72;;;;;;;13.43;100.00;94304.03;5013441;28;20037;-68
2022/05/30 00:52:34;;;;;;;10.98;5.53;;;;;;;13.45;100.00;94307.97;4986947;28;20045;-67
2022/05/30 00:55:14;;;;;;;12.95;5.35;;;;;;;13.42;100.00;94318.19;5010678;28;20049;-68
2022/05/30 00:57:43;;;;;;;22.52;5.07;;;;;;;13.36;100.00;94314.75;4996446;28;20857;-67
2022/05/30 01:00:19;;;;;;;27.38;4.95;;;;;;;13.32;100.00;94309.25;5014177;28;20042;-67
2022/05/30 01:06:30;;;;;;;25.23;4.72;;;;;;;13.29;100.00;94319.41;4998349;28;20127;-67
2022/05/30 01:08:30;;;;;;;43.97;4.82;;;;;;;13.18;100.00;94322.03;4995724;28;20399;-67
2022/05/30 01:10:57;;;;;;;32.08;5.55;;;;;;;13.17;100.00;94317.06;5007018;28;21303;-67
2022/05/30 01:13:27;;;;;;;27.65;5.22;;;;;;;13.12;100.00;94317.84;4995086;28;20136;-67
2022/05/30 01:15:55;;;;;;;40.40;4.60;;;;;;;13.15;100.00;94314.72;5003816;28;20045;-67
2022/05/30 01:18:33;;;;;;;45.40;6.03;;;;;;;13.16;100.00;94321.53;5011284;28;20041;-67
2022/05/30 01:21:42;;;;;;;43.00;5.65;;;;;;;13.17;100.00;94317.84;5016961;28;20436;-67
2022/05/30 01:24:45;;;;;;;49.28;6.35;;;;;;;13.15;100.00;94322.56;5016654;28;20061;-67
2022/05/30 01:28:03;;;;;;;48.33;5.68;;;;;;;13.13;100.00;94332.50;4954815;28;20073;-67
2022/05/30 01:30:37;;;;;;;33.28;5.28;;;;;;;13.12;100.00;94332.75;5021725;28;20077;-67
2022/05/30 01:33:04;;;;;;;30.50;5.55;;;;;;;13.02;100.00;94320.44;5000349;28;20065;-68
2022/05/30 01:35:32;;;;;;;30.73;4.97;;;;;;;13.07;100.00;94333.53;5015699;28;20611;-67
2022/05/30 01:38:03;;;;;;;9.88;3.97;;;;;;;12.93;100.00;94329.84;4998612;28;20141;-67
2022/05/30 01:40:35;;;;;;;29.13;4.93;;;;;;;12.95;100.00;94325.13;4982222;28;20037;-68
2022/05/30 01:43:02;;;;;;;18.98;4.40;;;;;;;12.93;100.00;94322.78;4998268;28;20180;-68
2022/05/30 01:45:29;;;;;;;18.55;4.15;;;;;;;12.91;100.00;94329.28;5000034;28;20566;-68
2022/05/30 01:47:57;;;;;;;23.88;4.47;;;;;;;12.72;100.00;94311.47;5002898;28;20391;-67
2022/05/30 01:50:28;;;;;;;14.07;4.10;;;;;;;12.84;100.00;94326.13;5000026;28;20049;-67
2022/05/30 01:53:02;;;;;;;11.27;4.35;;;;;;;12.86;100.00;94331.91;5001306;28;20042;-67
2022/05/30 01:55:49;;;;;;;20.95;3.58;;;;;;;12.86;100.00;94334.53;5014509;28;20131;-67
2022/05/30 01:58:16;;;;;;;13.90;3.80;;;;;;;12.84;100.00;94334.78;5004119;28;20045;-68
2022/05/30 02:01:26;;;;;;;7.88;3.50;;;;;;;12.72;100.00;94334.97;4969629;28;20065;-67
2022/05/30 02:03:56;;;;;;;20.27;4.80;;;;;;;12.74;100.00;94340.72;4995481;28;20428;-67
2022/05/30 02:06:26;;;;;;;49.38;5.20;;;;;;;12.76;100.00;94343.88;5022572;28;20046;-67
2022/05/30 02:08:54;;;;;;;26.55;5.45;;;;;;;12.74;100.00;94335.50;4995240;28;20049;-67
2022/05/30 02:11:26;;;;;;;35.40;4.43;;;;;;;12.69;100.00;94343.31;5001256;28;20065;-67
2022/05/30 02:14:03;;;;;;;46.72;5.55;;;;;;;12.72;100.00;94342.81;5003131;28;20059;-67
2022/05/30 02:19:20;;;;;;;33.55;4.85;;;;;;;12.63;100.00;94354.81;5027793;28;20754;-66
2022/05/30 02:21:47;;;;;;;38.67;5.00;;;;;;;12.58;100.00;94346.94;5012121;28;20131;-66
2022/05/30 02:24:15;;;;;;;60.72;5.32;;;;;;;12.66;100.00;94359.53;5012445;28;20048;-66
2022/05/30 02:26:43;;;;;;;99.45;6.05;;;;;;;12.59;100.00;94353.75;5002109;28;20680;-68
2022/05/30 02:29:15;;;;;;;35.03;4.63;;;;;;;12.65;100.00;94355.34;5001726;28;20110;-69
2022/05/30 02:31:52;;;;;;;33.95;3.25;;;;;;;12.62;100.00;94354.03;5020181;28;20338;-67
2022/05/30 02:37:04;;;;;;;47.47;5.28;;;;;;;12.58;100.00;94367.84;5022238;28;20053;-67
2022/05/30 02:39:32;;;;;;;88.82;6.75;;;;;;;12.51;100.00;94362.06;5000506;28;20602;-67
2022/05/30 02:42:17;;;;;;;45.70;5.90;;;;;;;12.57;100.00;94376.72;5016914;28;20142;-67
2022/05/30 02:44:44;;;;;;;57.42;6.30;;;;;;;12.59;100.00;94374.66;5009539;28;20739;-67
2022/05/30 02:47:12;;;;;;;65.25;6.35;;;;;;;12.61;100.00;94377.78;5011222;28;20047;-66
2022/05/30 02:49:45;;;;;;;36.75;6.38;;;;;;;12.68;100.00;94377.56;4999768;28;20046;-67
2022/05/30 02:52:12;;;;;;;23.90;5.40;;;;;;;12.67;100.00;94381.97;5002321;28;20819;-67
2022/05/30 02:54:39;;;;;;;39.00;6.10;;;;;;;12.71;100.00;94385.69;4998951;28;20041;-67
2022/05/30 02:57:13;;;;;;;25.90;5.97;;;;;;;12.74;100.00;94387.00;5028908;28;20047;-67
2022/05/30 02:59:41;;;;;;;29.20;5.55;;;;;;;12.72;100.00;94389.84;4990828;28;20885;-67
2022/05/30 03:02:08;;;;;;;42.47;6.10;;;;;;;12.78;100.00;94383.63;4999879;28;20587;-67
2022/05/30 03:04:36;;;;;;;55.78;5.90;;;;;;;12.74;100.00;94392.22;5000247;28;20148;-67
2022/05/30 03:07:05;;;;;;;68.97;7.20;;;;;;;12.76;100.00;94396.13;4983541;28;20045;-67
2022/05/30 03:09:32;;;;;;;28.83;6.40;;;;;;;12.79;100.00;94395.63;4998081;28;20052;-67
2022/05/30 03:12:14;;;;;;;51.10;6.45;;;;;;;12.81;100.00;94396.16;5009915;28;20049;-67
2022/05/30 03:14:41;;;;;;;49.25;6.97;;;;;;;12.89;100.00;94415.00;5004176;28;21034;-67
2022/05/30 03:17:09;;;;;;;43.65;6.72;;;;;;;12.85;100.00;94414.72;5013779;28;20060;-68
2022/05/30 03:19:40;;;;;;;32.13;6.30;;;;;;;12.81;100.00;94435.34;5002349;28;20161;-67
2022/05/30 03:22:07;;;;;;;27.17;6.20;;;;;;;12.73;100.00;94438.47;4997383;28;20037;-67
2022/05/30 03:24:49;;;;;;;30.20;7.38;;;;;;;12.73;100.00;94442.88;5006447;28;20050;-67
2022/05/30 03:27:16;;;;;;;29.33;7.03;;;;;;;12.74;100.00;94445.25;5021064;28;20049;-67
2022/05/30 03:29:43;;;;;;;17.73;6.65;;;;;;;12.75;100.00;94457.28;5016903;28;21758;-67
2022/05/30 03:32:10;;;;;;;15.82;7.00;;;;;;;12.74;100.00;94455.69;4995382;28;20507;-67
2022/05/30 03:34:37;;;;;;;14.32;6.88;;;;;;;12.75;100.00;94459.91;5002068;28;20475;-67
2022/05/30 03:37:04;;;;;;;10.68;6.18;;;;;;;12.75;100.00;94467.75;5014279;28;20067;-67
2022/05/30 03:39:37;;;;;;;15.75;7.80;;;;;;;12.73;100.00;94466.41;5016570;28;22108;-66
2022/05/30 03:42:14;;;;;;;12.07;6.85;;;;;;;12.67;100.00;94470.81;5015135;28;20151;-68
2022/05/30 03:44:50;;;;;;;14.85;7.53;;;;;;;12.58;100.00;94478.34;5015966;28;20527;-68
2022/05/30 03:47:18;;;;;;;12.13;6.30;;;;;;;12.54;100.00;94486.94;5020408;28;20065;-66
2022/05/30 03:49:47;;;;;;;12.70;6.55;;;;;;;12.59;100.00;94486.97;5018071;28;20499;-68
2022/05/30 03:52:14;;;;;;;13.85;6.80;;;;;;;12.61;100.00;94482.28;5018458;28;20134;-68
2022/05/30 03:54:42;;;;;;;11.07;6.97;;;;;;;12.57;100.00;94486.44;5016481;28;20048;-66
2022/05/30 03:57:09;;;;;;;12.80;6.45;;;;;;;12.53;100.00;94486.16;5020783;28;20698;-68
2022/05/30 03:59:36;;;;;;;9.52;5.32;;;;;;;12.54;100.00;94487.72;5019529;28;20049;-68
2022/05/30 04:02:03;;;;;;;10.18;5.72;;;;;;;12.52;100.00;94489.81;5017550;28;20048;-68
2022/05/30 04:04:30;;;;;;;8.65;5.25;;;;;;;12.43;100.00;94494.69;5015034;28;20124;-68
2022/05/30 04:07:00;;;;;;;8.05;4.90;;;;;;;12.40;100.00;94487.34;5027792;28;20140;-68
2022/05/30 04:09:29;;;;;;;8.90;5.25;;;;;;;12.37;100.00;94495.72;5015907;28;20060;-68
2022/05/30 04:12:20;;;;;;;14.00;6.25;;;;;;;12.38;100.00;94510.31;5022117;28;20865;-68
2022/05/30 04:15:08;;;;;;;11.60;6.63;;;;;;;12.29;100.00;94517.03;5021324;28;20211;-68
2022/05/30 04:17:36;;;;;;;10.40;7.22;;;;;;;12.25;100.00;94515.97;5012654;28;20516;-68
2022/05/30 04:20:06;;;;;;;14.38;7.60;;;;;;;12.30;100.00;94508.19;5019915;28;20050;-69
2022/05/30 04:22:34;;;;;;;13.88;8.23;;;;;;;12.31;100.00;94509.75;5019743;28;20041;-68
2022/05/30 04:25:19;;;;;;;15.25;9.63;;;;;;;12.41;100.00;94520.28;5015000;28;20053;-67
2022/05/30 04:27:46;;;;;;;20.75;8.55;;;;;;;12.29;100.00;94527.50;5019084;28;20041;-67
2022/05/30 04:30:14;;;;;;;17.63;10.45;;;;;;;12.30;100.00;94531.69;5013881;28;20038;-68
2022/05/30 04:32:48;;;;;;;13.60;9.10;;;;;;;12.20;100.00;94528.97;5015706;28;20583;-69
2022/05/30 04:35:18;;;;;;;13.60;8.30;;;;;;;12.24;100.00;94530.88;5014716;28;20643;-69
2022/05/30 04:37:50;;;;;;;19.67;10.10;;;;;;;12.27;100.00;94523.56;5029727;28;20049;-69
2022/05/30 04:40:37;;;;;;;16.35;9.88;;;;;;;12.23;100.00;94539.72;5000255;28;20072;-69
2022/05/30 04:43:15;;;;;;;21.92;10.68;;;;;;;12.20;100.00;94539.44;5019027;28;20057;-67
2022/05/30 04:46:05;;;;;;;17.77;10.55;;;;;;;12.16;100.00;94538.34;5018369;28;20052;-67
2022/05/30 04:48:41;;;;;;;23.00;10.90;;;;;;;12.10;100.00;94534.09;5013173;28;20486;-67
2022/05/30 04:51:09;;;;;;;20.35;9.40;;;;;;;12.14;100.00;94527.38;5017122;28;20080;-68
2022/05/30 04:53:36;;;;;;;19.60;9.82;;;;;;;12.19;100.00;94545.66;5003309;28;20064;-67
2022/05/30 04:56:09;;;;;;;23.23;12.00;;;;;;;12.26;100.00;94533.19;5017296;28;20054;-68
2022/05/30 04:59:00;;;;;;;22.48;10.88;;;;;;;12.36;100.00;94542.97;5015520;28;20053;-68
2022/05/30 05:01:28;;;;;;;21.77;12.32;;;;;;;12.47;100.00;94555.06;5019470;28;21519;-68
2022/05/30 05:03:55;;;;;;;22.15;11.38;;;;;;;12.54;100.00;94554.84;5017848;28;20059;-68
2022/05/30 05:06:23;;;;;;;21.02;12.18;;;;;;;12.68;100.00;94547.41;5016361;28;20046;-68
2022/05/30 05:08:51;;;;;;;17.70;8.05;;;;;;;12.66;100.00;94552.88;5012646;28;20049;-68
2022/05/30 05:11:34;;;;;;;21.70;11.30;;;;;;;12.84;100.00;94554.31;5020842;28;20053;-68
2022/05/30 05:14:19;;;;;;;19.45;10.98;;;;;;;12.90;100.00;94561.13;5010433;28;20060;-68
2022/05/30 05:17:06;;;;;;;19.08;10.30;;;;;;;13.12;100.00;94555.75;5014487;28;20072;-68
2022/05/30 05:19:33;;;;;;;17.90;10.68;;;;;;;13.20;100.00;94563.13;5010711;28;20049;-68
2022/05/30 05:22:00;;;;;;;18.77;10.63;;;;;;;13.19;100.00;94561.56;5012614;28;20049;-68
2022/05/30 05:24:29;;;;;;;21.45;10.82;;;;;;;13.25;100.00;94564.19;5015544;28;20049;-68
2022/05/30 05:27:05;;;;;;;17.60;9.88;;;;;;;13.20;100.00;94563.13;5018720;28;20045;-67
2022/05/30 05:29:32;;;;;;;22.20;9.98;;;;;;;13.39;100.00;94565.34;5018551;28;20120;-68
2022/05/30 05:32:01;;;;;;;21.00;9.27;;;;;;;13.38;100.00;94559.34;5035712;28;20049;-68
2022/05/30 05:34:28;;;;;;;22.33;9.30;;;;;;;13.57;100.00;94561.50;5013020;28;20046;-69
2022/05/30 05:36:56;;;;;;;21.92;9.73;;;;;;;13.73;100.00;94565.75;5018384;28;20159;-68
2022/05/30 05:39:24;;;;;;;17.38;9.43;;;;;;;13.86;100.00;94569.72;5029846;28;20073;-68
2022/05/30 05:41:55;;;;;;;18.92;10.55;;;;;;;14.01;100.00;94570.78;5033399;28;20049;-68
2022/05/30 05:44:23;;;;;;;16.80;9.60;;;;;;;14.16;100.00;94563.00;5018586;28;20049;-69
2022/05/30 05:46:50;;;;;;;16.92;9.73;;;;;;;14.22;100.00;94561.94;5001144;28;20045;-68
2022/05/30 05:49:18;;;;;;;19.65;8.32;;;;;;;14.22;100.00;94572.41;5017484;28;20131;-68
2022/05/30 05:51:52;;;;;;;16.05;8.02;;;;;;;14.22;100.00;94563.78;5013158;28;20044;-68
2022/05/30 05:54:22;;;;;;;14.80;8.57;;;;;;;14.42;100.00;94581.34;5035215;28;20049;-68
2022/05/30 05:56:51;;;;;;;14.57;9.00;;;;;;;14.51;100.00;94580.59;5034585;28;20056;-68
2022/05/30 05:59:27;;;;;;;11.90;8.65;;;;;;;14.76;100.00;94583.50;5016359;28;20041;-68
2022/05/30 06:01:53;;;;;;;15.95;8.60;;;;;;;14.89;100.00;94585.56;5015761;28;20055;-68
2022/05/30 06:04:22;;;;;;;14.73;9.13;;;;;;;14.91;100.00;94573.00;5014940;28;20042;-67
2022/05/30 06:06:52;;;;;;;20.40;8.73;;;;;;;15.10;100.00;94587.13;5019251;28;20053;-67
2022/05/30 06:09:27;;;;;;;16.38;8.60;;;;;;;14.94;100.00;94598.69;5016353;28;20549;-67
2022/05/30 06:11:58;;;;;;;18.33;7.85;;;;;;;15.03;100.00;94594.47;5031488;28;20045;-67
2022/05/30 06:14:25;;;;;;;12.85;8.68;;;;;;;15.04;100.00;94582.94;5014045;28;20037;-68
2022/05/30 06:16:53;;;;;;;17.27;8.80;;;;;;;15.18;100.00;94587.63;5017348;28;20041;-67
2022/05/30 06:19:21;;;;;;;15.52;9.13;;;;;;;15.36;100.00;94589.72;5015776;28;20160;-67
2022/05/30 06:21:48;;;;;;;14.20;8.40;;;;;;;15.49;100.00;94578.66;5021015;28;20128;-67
2022/05/30 06:24:16;;;;;;;16.48;9.13;;;;;;;15.82;100.00;94592.19;5031981;28;20813;-68
2022/05/30 06:27:15;;;;;;;11.82;7.95;;;;;;;15.83;100.00;94598.25;4997828;28;20053;-68
2022/05/30 06:30:01;;;;;;;15.45;7.90;;;;;;;15.96;100.00;94599.50;5019925;28;20515;-68
2022/05/30 06:32:28;;;;;;;12.75;7.65;;;;;;;16.19;100.00;94606.75;5022486;28;20494;-68
2022/05/30 06:35:04;;;;;;;12.85;7.03;;;;;;;16.24;100.00;94613.78;5016032;28;20439;-68
2022/05/30 06:37:34;;;;;;;13.63;7.00;;;;;;;16.28;100.00;94614.03;5017004;28;20591;-68
2022/05/30 06:40:03;;;;;;;14.50;7.90;;;;;;;16.30;100.00;94610.09;5014037;28;20045;-68
2022/05/30 06:42:52;;;;;;;11.15;7.00;;;;;;;16.41;100.00;94618.72;5013905;28;20046;-68
2022/05/30 06:45:29;;;;;;;13.25;8.25;;;;;;;16.63;100.00;94610.41;5021875;28;20099;-69
2022/05/30 06:48:15;;;;;;;12.52;7.65;;;;;;;16.77;100.00;94605.31;5024519;28;20059;-68
2022/05/30 06:51:09;;;;;;;17.17;7.88;;;;;;;17.08;100.00;94619.03;5007585;28;20084;-68
2022/05/30 06:53:37;;;;;;;22.67;6.95;;;;;;;17.09;100.00;94601.41;4987523;28;20164;-68
2022/05/30 06:56:13;;;;;;;12.52;7.63;;;;;;;17.32;100.00;94621.72;5013151;28;20049;-68
2022/05/30 06:58:40;;;;;;;11.25;6.68;;;;;;;17.28;100.00;94620.69;5018766;28;20593;-68
2022/05/30 07:01:07;;;;;;;11.27;6.97;;;;;;;17.29;100.00;94617.00;5011465;28;20048;-68
2022/05/30 07:03:34;;;;;;;11.50;6.55;;;;;;;17.22;100.00;94621.81;5019782;28;20162;-68
2022/05/30 07:06:34;;;;;;;11.98;6.90;;;;;;;17.38;100.00;94610.06;4976060;28;20053;-68
2022/05/30 07:09:23;;;;;;;11.48;6.45;;;;;;;17.63;100.00;94616.13;5010657;28;20041;-68
2022/05/30 07:12:13;;;;;;;13.13;6.70;;;;;;;17.80;100.00;94628.06;4980403;28;20125;-68
2022/05/30 07:14:41;;;;;;;11.65;7.45;;;;;;;17.98;100.00;94621.31;5012267;28;20099;-68
2022/05/30 07:17:12;;;;;;;10.30;7.55;;;;;;;17.94;100.00;94621.09;5005660;28;20038;-67
2022/05/30 07:19:40;;;;;;;13.05;7.45;;;;;;;18.02;100.00;94612.53;5013913;28;20076;-67
2022/05/30 07:22:10;;;;;;;14.73;8.10;;;;;;;18.13;100.00;94619.28;4998422;28;20136;-67
2022/05/30 07:24:56;;;;;;;17.27;6.88;;;;;;;18.14;100.00;94610.28;5009443;28;20138;-67
2022/05/30 07:27:32;;;;;;;11.38;7.47;;;;;;;18.18;100.00;94621.03;5007071;28;20058;-65
2022/05/30 07:30:17;;;;;;;10.60;7.35;;;;;;;18.36;100.00;94631.88;5015956;28;20052;-66
2022/05/30 07:33:03;;;;;;;14.32;7.78;;;;;;;18.41;100.00;94619.41;5010076;28;20114;-67
2022/05/30 07:35:48;;;;;;;10.95;7.55;;;;;;;18.56;100.00;94621.03;5016683;28;20624;-69
2022/05/30 07:38:24;;;;;;;13.75;5.88;;;;;;;18.51;100.00;94629.84;5018774;28;20037;-68
2022/05/30 07:41:09;;;;;;;14.18;7.65;;;;;;;18.69;100.00;94630.09;5017877;28;20052;-69
2022/05/30 07:43:57;;;;;;;12.35;7.18;;;;;;;18.79;100.00;94632.59;5015182;28;20054;-69
2022/05/30 07:46:59;;;;;;;12.60;6.95;;;;;;;18.87;100.00;94621.41;4996115;28;20492;-67
2022/05/30 07:50:02;;;;;;;16.92;7.40;;;;;;;18.98;100.00;94637.06;5002196;28;20057;-67
2022/05/30 07:53:04;;;;;;;15.93;7.05;;;;;;;19.03;100.00;94634.34;5003963;28;20041;-68
2022/05/30 07:55:41;;;;;;;10.10;7.15;;;;;;;19.12;99.98;94632.63;5016116;28;20037;-67
2022/05/30 07:58:07;;;;;;;12.07;6.97;;;;;;;19.23;97.67;94627.94;5014913;28;20045;-68
2022/05/30 08:00:40;;;;;;;12.52;6.97;;;;;;;19.36;92.17;94637.78;5019417;28;20041;-67
2022/05/30 08:03:16;;;;;;;10.20;6.28;;;;;;;19.64;92.51;94628.03;5013706;28;20467;-68
2022/05/30 08:06:04;;;;;;;15.45;5.90;;;;;;;19.84;90.60;94632.19;5004292;28;20068;-68
2022/05/30 08:08:50;;;;;;;10.63;5.95;;;;;;;20.00;90.97;94637.94;5015980;28;20504;-69
2022/05/30 08:11:17;;;;;;;12.75;5.28;;;;;;;20.00;88.70;94630.00;5016726;28;20042;-68
2022/05/30 08:13:50;;;;;;;15.77;6.60;;;;;;;20.07;90.19;94631.47;5019092;28;20045;-68
2022/05/30 08:16:20;;;;;;;11.20;5.53;;;;;;;20.03;90.47;94636.56;5013166;28;20143;-68
2022/05/30 08:19:09;;;;;;;9.75;5.03;;;;;;;20.00;87.03;94634.50;5036780;28;20037;-68
2022/05/30 08:22:05;;;;;;;8.95;4.65;;;;;;;20.23;89.10;94645.94;5021760;28;20045;-67
2022/05/30 08:24:42;;;;;;;9.48;5.90;;;;;;;20.33;86.25;94645.75;5015285;28;20049;-68
2022/05/30 08:27:15;;;;;;;8.73;5.30;;;;;;;20.44;87.00;94630.44;5035515;28;20040;-69
2022/05/30 08:29:48;;;;;;;9.50;4.72;;;;;;;20.76;87.35;94642.72;5002951;28;20048;-68
2022/05/30 08:32:15;;;;;;;10.02;5.20;;;;;;;20.86;84.65;94640.91;5030465;28;20127;-68
2022/05/30 08:35:19;;;;;;;10.88;4.88;;;;;;;20.85;85.33;94634.06;5011761;28;20042;-68
2022/05/30 08:37:47;;;;;;;7.43;3.72;;;;;;;20.74;83.36;94633.50;5017703;28;20049;-67
2022/05/30 08:43:39;;;;;;;10.00;5.40;;;;;;;20.82;87.12;94632.78;5008069;28;20060;-67
2022/05/30 08:46:35;;;;;;;9.65;4.90;;;;;;;20.98;84.94;94644.59;5015241;28;21046;-67
2022/05/30 08:49:03;;;;;;;7.95;4.93;;;;;;;20.90;86.52;94639.22;5000810;28;20050;-67
2022/05/30 08:51:46;;;;;;;11.38;5.03;;;;;;;21.16;85.02;94648.13;5016013;28;20049;-66
2022/05/30 08:54:21;;;;;;;10.27;5.10;;;;;;;21.12;84.80;94641.09;5000373;28;20050;-67
2022/05/30 08:57:38;;;;;;;6.45;4.70;;;;;;;21.10;84.19;94638.72;5012288;28;20045;-67
2022/05/30 09:00:10;;;;;;;10.77;5.10;;;;;;;21.20;82.46;94649.09;4972456;28;20052;-68
2022/05/30 09:03:11;;;;;;;6.07;4.35;;;;;;;21.32;80.70;94639.78;5027843;28;20119;-67
2022/05/30 09:05:45;;;;;;;8.75;5.35;;;;;;;21.54;76.84;94650.41;5001953;28;20033;-67
2022/05/30 09:08:23;;;;;;;7.07;4.72;;;;;;;21.64;80.55;94646.69;5016270;28;20095;-67
2022/05/30 09:11:05;;;;;;;12.48;4.70;;;;;;;21.76;79.93;94654.09;5000706;28;20531;-67
2022/05/30 09:13:43;;;;;;;9.23;4.72;;;;;;;21.88;76.28;94646.34;5000367;28;20049;-67
2022/05/30 09:16:34;;;;;;;6.15;4.78;;;;;;;21.86;75.92;94647.72;5014941;28;20038;-67
2022/05/30 09:19:09;;;;;;;11.23;4.25;;;;;;;21.68;75.92;94652.16;5002909;28;20123;-68
2022/05/30 09:21:38;;;;;;;13.15;5.57;;;;;;;21.70;78.92;94655.31;5000986;28;20034;-67
2022/05/30 09:24:06;;;;;;;13.23;5.82;;;;;;;22.07;76.89;94653.25;4999771;28;20049;-67
2022/05/30 09:26:40;;;;;;;7.57;5.03;;;;;;;22.16;74.99;94656.69;4995244;28;20042;-67
2022/05/30 09:29:22;;;;;;;10.43;4.00;;;;;;;21.72;75.21;94653.13;4998872;28;20045;-67
2022/05/30 09:32:34;;;;;;;13.02;5.20;;;;;;;21.89;76.77;94658.47;5016631;28;20102;-67
2022/05/30 09:35:22;;;;;;;6.45;4.55;;;;;;;22.06;72.65;94662.31;5009492;28;20292;-67
2022/05/30 09:38:22;;;;;;;6.18;4.95;;;;;;;22.27;72.31;94657.22;5004704;28;20104;-67
2022/05/30 09:41:20;;;;;;;9.77;4.82;;;;;;;22.28;73.10;94659.56;5014176;28;20775;-67
2022/05/30 09:44:04;;;;;;;8.10;4.45;;;;;;;22.32;71.45;94665.03;5001898;28;20069;-67
2022/05/30 09:46:41;;;;;;;7.30;4.18;;;;;;;22.33;71.72;94667.38;4998091;28;20135;-68
2022/05/30 09:49:40;;;;;;;7.25;5.13;;;;;;;22.43;70.62;94660.22;4992173;28;20046;-67
2022/05/30 09:52:33;;;;;;;14.77;4.88;;;;;;;22.52;70.73;94668.97;4998472;28;20069;-67
2022/05/30 09:55:37;;;;;;;13.50;5.53;;;;;;;22.82;72.63;94661.19;4991776;28;20141;-67
2022/05/30 09:58:12;;;;;;;7.32;4.32;;;;;;;23.15;68.15;94666.06;5013592;28;21516;-66
2022/05/30 10:01:00;;;;;;;7.30;4.53;;;;;;;23.21;66.79;94667.44;5013412;28;20574;-67
2022/05/30 10:03:37;;;;;;;8.05;4.20;;;;;;;23.40;67.45;94675.84;5028985;28;20053;-68
2022/05/30 10:06:27;;;;;;;5.70;3.53;;;;;;;23.45;66.81;94683.66;5015279;28;20069;-67
2022/05/30 10:09:23;;;;;;;8.00;4.60;;;;;;;23.45;64.84;94678.34;5009135;28;20088;-67
2022/05/30 10:11:56;;;;;;;5.82;3.88;;;;;;;23.31;63.90;94677.75;4996927;28;20111;-67
2022/05/30 10:14:27;;;;;;;8.10;5.32;;;;;;;23.54;64.45;94682.88;4992192;28;20072;-67
2022/05/30 10:17:26;;;;;;;8.88;4.13;;;;;;;23.68;63.84;94670.16;5010571;28;20046;-67
2022/05/30 10:19:56;;;;;;;8.98;3.92;;;;;;;24.13;62.66;94685.66;4998305;28;20053;-66
2022/05/30 10:29:40;;;;;;;4.95;3.50;;;;;;;23.88;61.17;94666.06;5012412;28;20107;-67
2022/05/30 10:32:46;;;;;;;9.90;4.38;;;;;;;24.14;62.80;94671.25;4991007;28;20057;-67
2022/05/30 10:35:35;;;;;;;6.60;3.42;;;;;;;24.59;60.74;94670.69;5007378;28;20042;-67
2022/05/30 10:38:27;;;;;;;9.63;3.80;;;;;;;24.83;56.93;94671.97;4999602;28;20057;-67
2022/05/30 10:40:57;;;;;;;5.70;3.72;;;;;;;24.75;55.70;94678.13;5003633;28;20053;-68
2022/05/30 10:43:45;;;;;;;8.60;3.50;;;;;;;24.64;58.44;94674.28;5003533;28;20041;-69
2022/05/30 10:46:36;;;;;;;5.97;3.65;;;;;;;24.98;55.45;94671.34;5018177;28;20124;-67
2022/05/30 10:49:09;;;;;;;6.75;3.38;;;;;;;25.16;55.10;94676.53;5019459;28;20053;-67
2022/05/30 10:52:23;;;;;;;6.55;3.58;;;;;;;25.32;52.52;94668.75;5000550;28;20049;-67
2022/05/30 10:55:04;;;;;;;7.90;3.28;;;;;;;25.53;53.91;94669.47;5000436;28;20040;-68
2022/05/30 10:57:32;;;;;;;5.22;3.58;;;;;;;26.28;51.61;94665.78;5016979;28;20052;-67
2022/05/30 11:00:05;;;;;;;10.65;4.22;;;;;;;26.19;48.41;94672.34;4994392;28;20056;-67
2022/05/30 11:02:57;;;;;;;13.30;3.40;;;;;;;26.29;47.89;94669.25;4999684;28;20147;-67
2022/05/30 11:05:42;;;;;;;4.82;3.40;;;;;;;26.44;47.03;94665.88;5017927;28;20068;-67
2022/05/30 11:08:25;;;;;;;7.90;3.70;;;;;;;26.71;47.94;94666.31;5005267;28;20091;-67
2022/05/30 11:11:00;;;;;;;5.13;3.17;;;;;;;26.75;47.37;94661.06;5015705;28;20128;-67
2022/05/30 11:13:42;;;;;;;7.10;3.40;;;;;;;26.96;47.15;94666.25;5030353;28;20045;-67
2022/05/30 11:16:40;;;;;;;7.35;3.80;;;;;;;27.23;47.97;94664.69;4999884;28;20432;-67
2022/05/30 11:19:47;;;;;;;5.57;3.63;;;;;;;27.23;45.58;94670.03;5011662;28;20551;-67
2022/05/30 11:22:52;;;;;;;10.07;3.78;;;;;;;26.86;48.48;94662.91;4993287;28;20752;-67
2022/05/30 11:25:50;;;;;;;9.45;3.50;;;;;;;26.31;48.96;94670.44;5019661;28;20096;-67
2022/05/30 11:28:53;;;;;;;8.23;3.55;;;;;;;26.13;48.04;94675.25;5001564;28;20464;-67
2022/05/30 11:31:36;;;;;;;10.60;4.30;;;;;;;26.29;48.49;94667.34;5016637;28;20055;-67
2022/05/30 11:34:34;;;;;;;11.48;4.30;;;;;;;26.48;47.47;94680.09;4993448;28;20080;-67
2022/05/30 11:37:25;;;;;;;6.32;3.72;;;;;;;26.80;48.92;94668.84;5013426;28;20058;-67
2022/05/30 11:40:10;;;;;;;9.00;3.33;;;;;;;26.95;46.77;94670.03;5003632;28;20444;-67
2022/05/30 11:43:01;;;;;;;8.43;3.53;;;;;;;27.29;45.85;94673.25;5016521;28;20042;-67
2022/05/30 11:45:40;;;;;;;11.20;3.72;;;;;;;27.16;44.93;94675.19;5014686;28;20049;-67
2022/05/30 11:48:17;;;;;;;9.73;2.42;;;;;;;26.41;44.72;94674.53;5013365;28;20033;-67
2022/05/30 11:51:26;;;;;;;6.38;3.55;;;;;;;26.77;43.73;94680.97;5019650;28;20052;-67
2022/05/30 11:54:04;;;;;;;5.82;3.97;;;;;;;26.65;45.46;94678.31;4972963;28;20707;-67
2022/05/30 11:56:56;;;;;;;9.43;4.22;;;;;;;27.10;44.49;94671.97;5014154;28;20045;-67
2022/05/30 11:59:40;;;;;;;4.60;3.72;;;;;;;27.20;41.87;94682.16;5011423;28;20053;-67
2022/05/30 12:02:16;;;;;;;6.93;4.05;;;;;;;27.45;41.61;94666.06;5017121;28;20041;-67
2022/05/30 12:05:08;;;;;;;6.85;3.85;;;;;;;27.69;41.59;94665.13;5011882;28;20056;-68
2022/05/30 12:07:44;;;;;;;7.20;4.03;;;;;;;27.94;39.48;94668.44;5016674;28;20041;-68
2022/05/30 12:10:17;;;;;;;8.18;3.42;;;;;;;28.13;38.33;94667.75;5009716;28;20066;-68
2022/05/30 12:13:01;;;;;;;12.57;3.47;;;;;;;28.15;36.06;94675.44;5016176;28;20065;-68
2022/05/30 12:15:34;;;;;;;6.68;2.80;;;;;;;28.30;36.60;94671.97;5017794;28;20554;-68
2022/05/30 12:24:28;;;;;;;7.07;3.22;;;;;;;29.09;35.67;94662.94;5001574;28;20041;-68
2022/05/30 12:27:22;;;;;;;9.43;3.00;;;;;;;29.52;34.95;94663.75;5012158;28;20056;-68
2022/05/30 12:29:49;;;;;;;10.13;2.78;;;;;;;29.64;33.10;94656.66;5023751;28;20041;-67
2022/05/30 12:32:23;;;;;;;11.55;3.05;;;;;;;29.70;32.11;94663.31;5021225;28;20052;-68